sensor_id;sensor_type;location;lat;lon;timestamp;temperature;humidity
6556;DHT22;3311;48.32423000;14.29074500;2023-04-01T00:02:17;14.00;65.30
6556;DHT22;3311;48.32423000;14.29074500;2023-04-01T00:04:46;14.00;65.60
6556;DHT22;3311;48.32423000;14.29074500;2023-04-01T00:07:13;14.00;65.60
6556;DHT22;3311;48.32423000;14.29074500;2023-04-01T00:09:40;13.90;66.20
6556;DHT22;3311;48.32423000;14.29074500;2023-04-01T00:12:08;13.90;65.50
6556;DHT22;3311;48.32423000;14.29074500;2023-04-01T00:14:35;13.90;65.70
6556;DHT22;3311;48.32423000;14.29074500;2023-04-01T00:17:03;13.90;66.10
6556;DHT22;3311;48.32423000;14.29074500;2023-04-01T00:19:30;13.80;66.60
6556;DHT22;3311;48.32423000;14.29074500;2023-04-01T00:21:59;13.80;66.80
6556;DHT22;3311;48.32423000;14.29074500;2023-04-01T00:24:27;13.80;66.60
6556;DHT22;3311;48.32423000;14.29074500;2023-04-01T00:26:55;13.70;66.80
6556;DHT22;3311;48.32423000;14.29074500;2023-04-01T00:29:22;13.70;66.70
6556;DHT22;3311;48.32423000;14.29074500;2023-04-01T00:31:55;13.70;67.10
6556;DHT22;3311;48.32423000;14.29074500;2023-04-01T00:34:23;13.70;67.60
6556;DHT22;3311;48.32423000;14.29074500;2023-04-01T00:36:51;13.70;67.40
6556;DHT22;3311;48.32423000;14.29074500;2023-04-01T00:39:21;13.70;67.70
6556;DHT22;3311;48.32423000;14.29074500;2023-04-01T00:41:49;13.60;68.10
6556;DHT22;3311;48.32423000;14.29074500;2023-04-01T00:44:19;13.50;68.80
6556;DHT22;3311;48.32423000;14.29074500;2023-04-01T00:46:47;13.40;69.60
6556;DHT22;3311;48.32423000;14.29074500;2023-04-01T00:49:16;13.40;69.90
6556;DHT22;3311;48.32423000;14.29074500;2023-04-01T00:51:45;13.40;69.80
6556;DHT22;3311;48.32423000;14.29074500;2023-04-01T00:54:16;13.50;69.80
6556;DHT22;3311;48.32423000;14.29074500;2023-04-01T00:56:49;13.40;70.20
6556;DHT22;3311;48.32423000;14.29074500;2023-04-01T00:59:25;13.40;70.20
6556;DHT22;3311;48.32423000;14.29074500;2023-04-01T01:01:53;13.40;69.70
6556;DHT22;3311;48.32423000;14.29074500;2023-04-01T01:04:25;13.40;70.00
6556;DHT22;3311;48.32423000;14.29074500;2023-04-01T01:07:00;13.40;70.20
6556;DHT22;3311;48.32423000;14.29074500;2023-04-01T01:09:39;13.30;70.90
6556;DHT22;3311;48.32423000;14.29074500;2023-04-01T01:12:13;13.30;71.30
6556;DHT22;3311;48.32423000;14.29074500;2023-04-01T01:14:58;13.20;71.80
6556;DHT22;3311;48.32423000;14.29074500;2023-04-01T01:17:35;13.20;71.70
6556;DHT22;3311;48.32423000;14.29074500;2023-04-01T01:26:41;13.20;71.90
6556;DHT22;3311;48.32423000;14.29074500;2023-04-01T01:29:23;13.20;72.30
6556;DHT22;3311;48.32423000;14.29074500;2023-04-01T01:31:58;13.20;72.40
6556;DHT22;3311;48.32423000;14.29074500;2023-04-01T01:34:33;13.20;72.60
6556;DHT22;3311;48.32423000;14.29074500;2023-04-01T01:37:10;13.20;72.60
6556;DHT22;3311;48.32423000;14.29074500;2023-04-01T01:39:42;13.20;72.50
6556;DHT22;3311;48.32423000;14.29074500;2023-04-01T01:42:13;13.20;72.50
6556;DHT22;3311;48.32423000;14.29074500;2023-04-01T01:44:44;13.20;72.80
6556;DHT22;3311;48.32423000;14.29074500;2023-04-01T01:47:14;13.20;72.90
6556;DHT22;3311;48.32423000;14.29074500;2023-04-01T01:49:43;13.20;73.20
6556;DHT22;3311;48.32423000;14.29074500;2023-04-01T01:52:13;13.10;73.30
6556;DHT22;3311;48.32423000;14.29074500;2023-04-01T01:54:48;13.10;73.40
6556;DHT22;3311;48.32423000;14.29074500;2023-04-01T01:57:16;13.10;73.30
6556;DHT22;3311;48.32423000;14.29074500;2023-04-01T01:59:46;13.10;73.40
6556;DHT22;3311;48.32423000;14.29074500;2023-04-01T02:02:16;13.10;73.30
6556;DHT22;3311;48.32423000;14.29074500;2023-04-01T02:04:45;13.10;73.40
6556;DHT22;3311;48.32423000;14.29074500;2023-04-01T02:07:18;13.10;73.50
6556;DHT22;3311;48.32423000;14.29074500;2023-04-01T02:09:47;13.10;73.60
6556;DHT22;3311;48.32423000;14.29074500;2023-04-01T02:12:17;13.20;73.30
6556;DHT22;3311;48.32423000;14.29074500;2023-04-01T02:14:49;13.20;73.00
6556;DHT22;3311;48.32423000;14.29074500;2023-04-01T02:17:20;13.10;72.90
6556;DHT22;3311;48.32423000;14.29074500;2023-04-01T02:19:51;13.10;72.70
6556;DHT22;3311;48.32423000;14.29074500;2023-04-01T02:22:26;13.20;72.20
6556;DHT22;3311;48.32423000;14.29074500;2023-04-01T02:24:58;13.30;71.80
6556;DHT22;3311;48.32423000;14.29074500;2023-04-01T02:27:26;13.40;71.20
6556;DHT22;3311;48.32423000;14.29074500;2023-04-01T02:29:54;13.50;71.00
6556;DHT22;3311;48.32423000;14.29074500;2023-04-01T02:32:21;13.50;70.40
6556;DHT22;3311;48.32423000;14.29074500;2023-04-01T02:34:49;13.40;70.80
6556;DHT22;3311;48.32423000;14.29074500;2023-04-01T02:37:17;13.40;70.80
6556;DHT22;3311;48.32423000;14.29074500;2023-04-01T02:39:46;13.40;70.20
6556;DHT22;3311;48.32423000;14.29074500;2023-04-01T02:42:14;13.40;70.10
6556;DHT22;3311;48.32423000;14.29074500;2023-04-01T02:44:41;13.50;69.80
6556;DHT22;3311;48.32423000;14.29074500;2023-04-01T02:47:09;13.50;69.40
6556;DHT22;3311;48.32423000;14.29074500;2023-04-01T02:49:36;13.70;69.20
6556;DHT22;3311;48.32423000;14.29074500;2023-04-01T02:52:04;13.70;69.00
6556;DHT22;3311;48.32423000;14.29074500;2023-04-01T02:54:31;13.70;68.90
6556;DHT22;3311;48.32423000;14.29074500;2023-04-01T02:57:00;13.80;68.80
6556;DHT22;3311;48.32423000;14.29074500;2023-04-01T02:59:27;13.80;68.80
6556;DHT22;3311;48.32423000;14.29074500;2023-04-01T03:01:54;13.80;68.60
6556;DHT22;3311;48.32423000;14.29074500;2023-04-01T03:04:21;13.80;68.80
6556;DHT22;3311;48.32423000;14.29074500;2023-04-01T03:06:49;13.90;68.50
6556;DHT22;3311;48.32423000;14.29074500;2023-04-01T03:09:17;13.90;68.30
6556;DHT22;3311;48.32423000;14.29074500;2023-04-01T03:11:44;13.80;67.90
6556;DHT22;3311;48.32423000;14.29074500;2023-04-01T03:14:13;13.70;68.20
6556;DHT22;3311;48.32423000;14.29074500;2023-04-01T03:16:40;13.70;68.30
6556;DHT22;3311;48.32423000;14.29074500;2023-04-01T03:19:07;13.70;68.40
6556;DHT22;3311;48.32423000;14.29074500;2023-04-01T03:21:34;13.70;68.80
6556;DHT22;3311;48.32423000;14.29074500;2023-04-01T03:24:02;13.60;68.40
6556;DHT22;3311;48.32423000;14.29074500;2023-04-01T03:26:29;13.60;68.50
6556;DHT22;3311;48.32423000;14.29074500;2023-04-01T03:28:56;13.70;68.60
6556;DHT22;3311;48.32423000;14.29074500;2023-04-01T03:31:25;13.70;68.30
6556;DHT22;3311;48.32423000;14.29074500;2023-04-01T03:33:53;13.80;68.10
6556;DHT22;3311;48.32423000;14.29074500;2023-04-01T03:36:20;13.80;68.20
6556;DHT22;3311;48.32423000;14.29074500;2023-04-01T03:38:47;13.80;68.10
6556;DHT22;3311;48.32423000;14.29074500;2023-04-01T03:41:16;13.70;68.60
6556;DHT22;3311;48.32423000;14.29074500;2023-04-01T03:43:44;13.60;68.80
6556;DHT22;3311;48.32423000;14.29074500;2023-04-01T03:46:16;13.60;68.90
6556;DHT22;3311;48.32423000;14.29074500;2023-04-01T03:48:45;13.60;68.80
6556;DHT22;3311;48.32423000;14.29074500;2023-04-01T03:51:12;13.60;68.70
6556;DHT22;3311;48.32423000;14.29074500;2023-04-01T03:53:39;13.60;68.70
6556;DHT22;3311;48.32423000;14.29074500;2023-04-01T03:56:08;13.60;68.70
6556;DHT22;3311;48.32423000;14.29074500;2023-04-01T03:58:36;13.60;68.90
6556;DHT22;3311;48.32423000;14.29074500;2023-04-01T04:01:17;13.60;69.10
6556;DHT22;3311;48.32423000;14.29074500;2023-04-01T04:03:47;13.60;69.00
6556;DHT22;3311;48.32423000;14.29074500;2023-04-01T04:06:17;13.60;68.80
6556;DHT22;3311;48.32423000;14.29074500;2023-04-01T04:08:45;13.60;68.80
6556;DHT22;3311;48.32423000;14.29074500;2023-04-01T04:11:13;13.50;68.90
6556;DHT22;3311;48.32423000;14.29074500;2023-04-01T04:13:40;13.50;68.90
6556;DHT22;3311;48.32423000;14.29074500;2023-04-01T04:16:07;13.70;68.80
6556;DHT22;3311;48.32423000;14.29074500;2023-04-01T04:18:36;13.80;68.20
6556;DHT22;3311;48.32423000;14.29074500;2023-04-01T04:21:05;13.70;68.00
6556;DHT22;3311;48.32423000;14.29074500;2023-04-01T04:23:32;13.70;68.00
6556;DHT22;3311;48.32423000;14.29074500;2023-04-01T04:26:00;13.70;68.20
6556;DHT22;3311;48.32423000;14.29074500;2023-04-01T04:28:28;13.70;68.00
6556;DHT22;3311;48.32423000;14.29074500;2023-04-01T04:30:56;13.70;68.00
6556;DHT22;3311;48.32423000;14.29074500;2023-04-01T04:33:23;13.60;68.30
6556;DHT22;3311;48.32423000;14.29074500;2023-04-01T04:35:54;13.60;68.50
6556;DHT22;3311;48.32423000;14.29074500;2023-04-01T04:38:23;13.40;68.70
6556;DHT22;3311;48.32423000;14.29074500;2023-04-01T04:40:51;13.50;68.80
6556;DHT22;3311;48.32423000;14.29074500;2023-04-01T04:43:19;13.50;68.60
6556;DHT22;3311;48.32423000;14.29074500;2023-04-01T04:45:46;13.50;68.40
6556;DHT22;3311;48.32423000;14.29074500;2023-04-01T04:48:15;13.40;68.60
6556;DHT22;3311;48.32423000;14.29074500;2023-04-01T04:50:44;13.40;68.60
6556;DHT22;3311;48.32423000;14.29074500;2023-04-01T04:53:12;13.50;68.60
6556;DHT22;3311;48.32423000;14.29074500;2023-04-01T04:55:44;13.50;68.40
6556;DHT22;3311;48.32423000;14.29074500;2023-04-01T04:58:12;13.50;68.60
6556;DHT22;3311;48.32423000;14.29074500;2023-04-01T05:00:39;13.40;68.70
6556;DHT22;3311;48.32423000;14.29074500;2023-04-01T05:03:06;13.50;68.70
6556;DHT22;3311;48.32423000;14.29074500;2023-04-01T05:05:34;13.60;68.50
6556;DHT22;3311;48.32423000;14.29074500;2023-04-01T05:08:01;13.50;68.80
6556;DHT22;3311;48.32423000;14.29074500;2023-04-01T05:10:28;13.50;68.90
6556;DHT22;3311;48.32423000;14.29074500;2023-04-01T05:12:58;13.40;68.70
6556;DHT22;3311;48.32423000;14.29074500;2023-04-01T05:15:25;13.60;68.60
6556;DHT22;3311;48.32423000;14.29074500;2023-04-01T05:17:53;13.70;68.40
6556;DHT22;3311;48.32423000;14.29074500;2023-04-01T05:20:20;13.90;68.10
6556;DHT22;3311;48.32423000;14.29074500;2023-04-01T05:22:47;14.00;67.50
6556;DHT22;3311;48.32423000;14.29074500;2023-04-01T05:25:15;14.10;66.90
6556;DHT22;3311;48.32423000;14.29074500;2023-04-01T05:27:42;14.10;66.70
6556;DHT22;3311;48.32423000;14.29074500;2023-04-01T05:30:12;14.10;66.80
6556;DHT22;3311;48.32423000;14.29074500;2023-04-01T05:32:39;14.10;66.80
6556;DHT22;3311;48.32423000;14.29074500;2023-04-01T05:35:07;14.00;66.50
6556;DHT22;3311;48.32423000;14.29074500;2023-04-01T05:37:35;14.00;66.80
6556;DHT22;3311;48.32423000;14.29074500;2023-04-01T05:40:03;14.00;67.00
6556;DHT22;3311;48.32423000;14.29074500;2023-04-01T05:42:31;14.00;67.00
6556;DHT22;3311;48.32423000;14.29074500;2023-04-01T05:44:58;14.00;66.90
6556;DHT22;3311;48.32423000;14.29074500;2023-04-01T05:47:27;14.10;66.80
6556;DHT22;3311;48.32423000;14.29074500;2023-04-01T05:49:54;14.10;66.60
6556;DHT22;3311;48.32423000;14.29074500;2023-04-01T05:52:22;14.20;66.50
6556;DHT22;3311;48.32423000;14.29074500;2023-04-01T05:54:49;14.20;66.30
6556;DHT22;3311;48.32423000;14.29074500;2023-04-01T05:57:17;14.20;66.30
6556;DHT22;3311;48.32423000;14.29074500;2023-04-01T05:59:44;14.20;66.30
6556;DHT22;3311;48.32423000;14.29074500;2023-04-01T06:02:17;14.20;66.20
6556;DHT22;3311;48.32423000;14.29074500;2023-04-01T06:04:46;14.20;66.20
6556;DHT22;3311;48.32423000;14.29074500;2023-04-01T06:07:15;14.30;66.00
6556;DHT22;3311;48.32423000;14.29074500;2023-04-01T06:09:44;14.30;65.90
6556;DHT22;3311;48.32423000;14.29074500;2023-04-01T06:12:38;14.20;65.80
6556;DHT22;3311;48.32423000;14.29074500;2023-04-01T06:15:18;14.30;66.30
6556;DHT22;3311;48.32423000;14.29074500;2023-04-01T06:17:58;14.20;65.90
6556;DHT22;3311;48.32423000;14.29074500;2023-04-01T06:20:36;14.30;66.00
6556;DHT22;3311;48.32423000;14.29074500;2023-04-01T06:23:14;14.30;65.90
6556;DHT22;3311;48.32423000;14.29074500;2023-04-01T06:26:04;14.40;65.80
6556;DHT22;3311;48.32423000;14.29074500;2023-04-01T06:28:46;14.40;65.70
6556;DHT22;3311;48.32423000;14.29074500;2023-04-01T06:31:28;14.40;65.50
6556;DHT22;3311;48.32423000;14.29074500;2023-04-01T06:34:23;14.40;65.50
6556;DHT22;3311;48.32423000;14.29074500;2023-04-01T06:40:10;14.40;65.50
6556;DHT22;3311;48.32423000;14.29074500;2023-04-01T06:43:02;14.50;65.30
6556;DHT22;3311;48.32423000;14.29074500;2023-04-01T06:45:39;14.50;65.30
6556;DHT22;3311;48.32423000;14.29074500;2023-04-01T06:48:23;14.50;65.00
6556;DHT22;3311;48.32423000;14.29074500;2023-04-01T06:50:58;14.50;65.40
6556;DHT22;3311;48.32423000;14.29074500;2023-04-01T06:53:37;14.50;65.40
6556;DHT22;3311;48.32423000;14.29074500;2023-04-01T06:56:08;14.50;65.30
6556;DHT22;3311;48.32423000;14.29074500;2023-04-01T06:58:41;14.50;65.40
6556;DHT22;3311;48.32423000;14.29074500;2023-04-01T07:01:14;14.60;65.30
6556;DHT22;3311;48.32423000;14.29074500;2023-04-01T07:03:47;14.70;65.40
6556;DHT22;3311;48.32423000;14.29074500;2023-04-01T07:06:23;14.70;65.30
6556;DHT22;3311;48.32423000;14.29074500;2023-04-01T07:08:55;14.70;65.00
6556;DHT22;3311;48.32423000;14.29074500;2023-04-01T07:11:29;14.70;65.10
6556;DHT22;3311;48.32423000;14.29074500;2023-04-01T07:14:01;14.80;64.90
6556;DHT22;3311;48.32423000;14.29074500;2023-04-01T07:16:32;14.90;66.30
6556;DHT22;3311;48.32423000;14.29074500;2023-04-01T07:19:05;15.10;68.90
6556;DHT22;3311;48.32423000;14.29074500;2023-04-01T07:21:36;15.20;68.50
6556;DHT22;3311;48.32423000;14.29074500;2023-04-01T07:24:12;15.20;67.40
6556;DHT22;3311;48.32423000;14.29074500;2023-04-01T07:26:41;15.20;67.30
6556;DHT22;3311;48.32423000;14.29074500;2023-04-01T07:29:11;15.10;66.90
6556;DHT22;3311;48.32423000;14.29074500;2023-04-01T07:31:57;15.10;66.80
6556;DHT22;3311;48.32423000;14.29074500;2023-04-01T07:34:31;15.10;66.70
6556;DHT22;3311;48.32423000;14.29074500;2023-04-01T07:37:06;15.00;66.20
6556;DHT22;3311;48.32423000;14.29074500;2023-04-01T07:39:44;15.00;66.50
6556;DHT22;3311;48.32423000;14.29074500;2023-04-01T07:42:23;15.00;65.90
6556;DHT22;3311;48.32423000;14.29074500;2023-04-01T07:44:59;15.00;65.80
6556;DHT22;3311;48.32423000;14.29074500;2023-04-01T07:47:39;15.00;65.80
6556;DHT22;3311;48.32423000;14.29074500;2023-04-01T07:50:16;15.10;65.60
6556;DHT22;3311;48.32423000;14.29074500;2023-04-01T07:52:50;15.00;64.50
6556;DHT22;3311;48.32423000;14.29074500;2023-04-01T07:55:27;15.00;64.40
6556;DHT22;3311;48.32423000;14.29074500;2023-04-01T07:58:04;15.00;64.40
6556;DHT22;3311;48.32423000;14.29074500;2023-04-01T08:00:40;15.00;64.60
6556;DHT22;3311;48.32423000;14.29074500;2023-04-01T08:03:28;15.10;64.20
6556;DHT22;3311;48.32423000;14.29074500;2023-04-01T08:06:02;15.10;64.00
6556;DHT22;3311;48.32423000;14.29074500;2023-04-01T08:08:45;15.10;63.00
6556;DHT22;3311;48.32423000;14.29074500;2023-04-01T08:11:27;15.00;63.20
6556;DHT22;3311;48.32423000;14.29074500;2023-04-01T08:14:07;15.00;63.00
6556;DHT22;3311;48.32423000;14.29074500;2023-04-01T08:16:45;15.00;63.20
6556;DHT22;3311;48.32423000;14.29074500;2023-04-01T08:19:25;15.10;63.10
6556;DHT22;3311;48.32423000;14.29074500;2023-04-01T08:22:00;15.20;63.20
6556;DHT22;3311;48.32423000;14.29074500;2023-04-01T08:24:35;15.40;63.20
6556;DHT22;3311;48.32423000;14.29074500;2023-04-01T08:27:11;15.40;62.50
6556;DHT22;3311;48.32423000;14.29074500;2023-04-01T08:29:45;15.50;62.20
6556;DHT22;3311;48.32423000;14.29074500;2023-04-01T08:32:17;15.60;62.40
6556;DHT22;3311;48.32423000;14.29074500;2023-04-01T08:34:50;15.80;62.50
6556;DHT22;3311;48.32423000;14.29074500;2023-04-01T08:37:25;15.90;62.10
6556;DHT22;3311;48.32423000;14.29074500;2023-04-01T08:39:59;15.90;62.10
6556;DHT22;3311;48.32423000;14.29074500;2023-04-01T08:42:48;16.00;62.20
6556;DHT22;3311;48.32423000;14.29074500;2023-04-01T08:45:33;16.10;62.10
6556;DHT22;3311;48.32423000;14.29074500;2023-04-01T08:48:28;16.00;61.70
6556;DHT22;3311;48.32423000;14.29074500;2023-04-01T08:51:42;16.00;62.00
6556;DHT22;3311;48.32423000;14.29074500;2023-04-01T08:57:15;16.10;61.60
6556;DHT22;3311;48.32423000;14.29074500;2023-04-01T09:00:12;16.20;61.10
6556;DHT22;3311;48.32423000;14.29074500;2023-04-01T09:03:20;16.10;60.40
6556;DHT22;3311;48.32423000;14.29074500;2023-04-01T09:09:45;15.90;60.90
6556;DHT22;3311;48.32423000;14.29074500;2023-04-01T09:12:34;15.80;60.30
6556;DHT22;3311;48.32423000;14.29074500;2023-04-01T09:15:40;15.70;60.50
6556;DHT22;3311;48.32423000;14.29074500;2023-04-01T09:18:39;15.70;60.40
6556;DHT22;3311;48.32423000;14.29074500;2023-04-01T09:27:18;15.70;59.40
6556;DHT22;3311;48.32423000;14.29074500;2023-04-01T09:30:14;15.60;59.30
6556;DHT22;3311;48.32423000;14.29074500;2023-04-01T09:36:03;15.60;59.20
6556;DHT22;3311;48.32423000;14.29074500;2023-04-01T09:38:44;15.60;59.40
6556;DHT22;3311;48.32423000;14.29074500;2023-04-01T09:41:22;15.60;59.30
6556;DHT22;3311;48.32423000;14.29074500;2023-04-01T09:44:06;15.60;59.40
6556;DHT22;3311;48.32423000;14.29074500;2023-04-01T09:46:51;15.60;59.30
6556;DHT22;3311;48.32423000;14.29074500;2023-04-01T09:49:38;15.60;59.20
6556;DHT22;3311;48.32423000;14.29074500;2023-04-01T09:52:21;15.60;59.10
6556;DHT22;3311;48.32423000;14.29074500;2023-04-01T09:55:04;15.60;59.00
6556;DHT22;3311;48.32423000;14.29074500;2023-04-01T09:57:53;15.60;58.90
6556;DHT22;3311;48.32423000;14.29074500;2023-04-01T10:03:50;15.60;59.30
6556;DHT22;3311;48.32423000;14.29074500;2023-04-01T10:09:56;15.50;59.90
6556;DHT22;3311;48.32423000;14.29074500;2023-04-01T10:13:07;15.60;60.20
6556;DHT22;3311;48.32423000;14.29074500;2023-04-01T10:19:02;15.70;60.50
6556;DHT22;3311;48.32423000;14.29074500;2023-04-01T10:22:00;15.70;59.70
6556;DHT22;3311;48.32423000;14.29074500;2023-04-01T10:24:53;15.80;59.70
6556;DHT22;3311;48.32423000;14.29074500;2023-04-01T10:30:49;15.90;59.40
6556;DHT22;3311;48.32423000;14.29074500;2023-04-01T10:36:53;15.90;59.90
6556;DHT22;3311;48.32423000;14.29074500;2023-04-01T10:39:49;15.90;59.70
6556;DHT22;3311;48.32423000;14.29074500;2023-04-01T10:54:47;16.00;59.00
6556;DHT22;3311;48.32423000;14.29074500;2023-04-01T10:57:34;15.90;58.70
6556;DHT22;3311;48.32423000;14.29074500;2023-04-01T11:00:25;15.90;58.40
6556;DHT22;3311;48.32423000;14.29074500;2023-04-01T11:03:21;15.90;58.80
6556;DHT22;3311;48.32423000;14.29074500;2023-04-01T11:06:25;15.90;58.60
6556;DHT22;3311;48.32423000;14.29074500;2023-04-01T11:09:39;15.90;58.60
6556;DHT22;3311;48.32423000;14.29074500;2023-04-01T11:12:34;15.90;58.20
6556;DHT22;3311;48.32423000;14.29074500;2023-04-01T11:15:37;15.90;58.10
6556;DHT22;3311;48.32423000;14.29074500;2023-04-01T11:18:33;15.90;57.90
6556;DHT22;3311;48.32423000;14.29074500;2023-04-01T11:21:34;15.90;58.30
6556;DHT22;3311;48.32423000;14.29074500;2023-04-01T11:24:21;15.90;58.20
6556;DHT22;3311;48.32423000;14.29074500;2023-04-01T11:27:01;15.90;57.70
6556;DHT22;3311;48.32423000;14.29074500;2023-04-01T11:29:52;15.90;58.30
6556;DHT22;3311;48.32423000;14.29074500;2023-04-01T11:32:34;16.00;58.40
6556;DHT22;3311;48.32423000;14.29074500;2023-04-01T11:38:12;16.00;58.00
6556;DHT22;3311;48.32423000;14.29074500;2023-04-01T11:40:49;16.00;57.80
6556;DHT22;3311;48.32423000;14.29074500;2023-04-01T11:43:24;16.00;57.50
6556;DHT22;3311;48.32423000;14.29074500;2023-04-01T11:46:01;16.00;57.50
6556;DHT22;3311;48.32423000;14.29074500;2023-04-01T11:48:45;15.90;57.50
6556;DHT22;3311;48.32423000;14.29074500;2023-04-01T11:57:14;16.00;57.70
6556;DHT22;3311;48.32423000;14.29074500;2023-04-01T12:00:14;15.90;57.60
6556;DHT22;3311;48.32423000;14.29074500;2023-04-01T12:03:00;15.90;57.70
6556;DHT22;3311;48.32423000;14.29074500;2023-04-01T12:05:38;15.90;57.60
6556;DHT22;3311;48.32423000;14.29074500;2023-04-01T12:08:15;15.90;57.60
6556;DHT22;3311;48.32423000;14.29074500;2023-04-01T12:10:53;15.90;57.60
6556;DHT22;3311;48.32423000;14.29074500;2023-04-01T12:13:32;15.90;58.00
6556;DHT22;3311;48.32423000;14.29074500;2023-04-01T12:16:22;15.90;57.80
6556;DHT22;3311;48.32423000;14.29074500;2023-04-01T12:18:55;15.90;57.50
6556;DHT22;3311;48.32423000;14.29074500;2023-04-01T12:21:28;15.90;57.70
6556;DHT22;3311;48.32423000;14.29074500;2023-04-01T12:26:55;15.90;57.30
6556;DHT22;3311;48.32423000;14.29074500;2023-04-01T12:32:38;15.90;57.20
6556;DHT22;3311;48.32423000;14.29074500;2023-04-01T12:35:19;15.90;57.00
6556;DHT22;3311;48.32423000;14.29074500;2023-04-01T12:37:57;15.90;57.30
6556;DHT22;3311;48.32423000;14.29074500;2023-04-01T12:40:56;15.90;57.00
6556;DHT22;3311;48.32423000;14.29074500;2023-04-01T12:46:34;16.00;57.20
6556;DHT22;3311;48.32423000;14.29074500;2023-04-01T12:49:27;16.00;57.10
6556;DHT22;3311;48.32423000;14.29074500;2023-04-01T12:52:09;16.00;57.20
6556;DHT22;3311;48.32423000;14.29074500;2023-04-01T12:54:54;16.00;57.50
6556;DHT22;3311;48.32423000;14.29074500;2023-04-01T12:57:46;16.00;57.10
6556;DHT22;3311;48.32423000;14.29074500;2023-04-01T13:00:32;16.00;57.20
6556;DHT22;3311;48.32423000;14.29074500;2023-04-01T13:03:37;15.90;57.40
6556;DHT22;3311;48.32423000;14.29074500;2023-04-01T13:06:33;15.80;58.80
6556;DHT22;3311;48.32423000;14.29074500;2023-04-01T13:09:13;15.70;59.90
6556;DHT22;3311;48.32423000;14.29074500;2023-04-01T13:11:54;15.70;60.90
6556;DHT22;3311;48.32423000;14.29074500;2023-04-01T13:14:50;15.70;61.30
6556;DHT22;3311;48.32423000;14.29074500;2023-04-01T13:17:23;15.70;60.70
6556;DHT22;3311;48.32423000;14.29074500;2023-04-01T13:20:00;15.70;62.00
6556;DHT22;3311;48.32423000;14.29074500;2023-04-01T13:22:49;15.70;61.60
6556;DHT22;3311;48.32423000;14.29074500;2023-04-01T13:25:26;15.70;61.30
6556;DHT22;3311;48.32423000;14.29074500;2023-04-01T13:28:00;15.70;61.30
6556;DHT22;3311;48.32423000;14.29074500;2023-04-01T13:30:33;15.70;61.40
6556;DHT22;3311;48.32423000;14.29074500;2023-04-01T13:33:10;15.80;61.40
6556;DHT22;3311;48.32423000;14.29074500;2023-04-01T13:35:46;15.70;61.30
6556;DHT22;3311;48.32423000;14.29074500;2023-04-01T13:38:41;15.80;61.20
6556;DHT22;3311;48.32423000;14.29074500;2023-04-01T13:41:22;15.70;61.40
6556;DHT22;3311;48.32423000;14.29074500;2023-04-01T13:43:58;15.80;61.30
6556;DHT22;3311;48.32423000;14.29074500;2023-04-01T13:46:49;15.80;61.00
6556;DHT22;3311;48.32423000;14.29074500;2023-04-01T13:49:42;15.80;61.10
6556;DHT22;3311;48.32423000;14.29074500;2023-04-01T13:52:31;15.90;61.00
6556;DHT22;3311;48.32423000;14.29074500;2023-04-01T13:55:26;15.90;60.80
6556;DHT22;3311;48.32423000;14.29074500;2023-04-01T13:58:35;15.90;60.70
6556;DHT22;3311;48.32423000;14.29074500;2023-04-01T14:01:10;15.90;60.70
6556;DHT22;3311;48.32423000;14.29074500;2023-04-01T14:04:01;15.80;60.40
6556;DHT22;3311;48.32423000;14.29074500;2023-04-01T14:06:44;15.90;60.50
6556;DHT22;3311;48.32423000;14.29074500;2023-04-01T14:09:25;15.90;60.60
6556;DHT22;3311;48.32423000;14.29074500;2023-04-01T14:12:02;15.90;60.60
6556;DHT22;3311;48.32423000;14.29074500;2023-04-01T14:14:41;15.90;60.30
6556;DHT22;3311;48.32423000;14.29074500;2023-04-01T14:20:33;15.80;60.40
6556;DHT22;3311;48.32423000;14.29074500;2023-04-01T14:23:24;15.80;60.70
6556;DHT22;3311;48.32423000;14.29074500;2023-04-01T14:26:07;15.60;61.80
6556;DHT22;3311;48.32423000;14.29074500;2023-04-01T14:28:41;15.50;62.50
6556;DHT22;3311;48.32423000;14.29074500;2023-04-01T14:31:38;15.40;62.70
6556;DHT22;3311;48.32423000;14.29074500;2023-04-01T14:34:22;15.30;63.80
6556;DHT22;3311;48.32423000;14.29074500;2023-04-01T14:37:01;15.30;64.40
6556;DHT22;3311;48.32423000;14.29074500;2023-04-01T14:40:03;15.30;64.90
6556;DHT22;3311;48.32423000;14.29074500;2023-04-01T14:43:00;15.30;64.70
6556;DHT22;3311;48.32423000;14.29074500;2023-04-01T14:48:32;15.40;64.00
6556;DHT22;3311;48.32423000;14.29074500;2023-04-01T14:51:08;15.40;63.80
6556;DHT22;3311;48.32423000;14.29074500;2023-04-01T14:53:38;15.40;64.10
6556;DHT22;3311;48.32423000;14.29074500;2023-04-01T14:56:15;15.40;64.30
6556;DHT22;3311;48.32423000;14.29074500;2023-04-01T14:59:04;15.40;64.30
6556;DHT22;3311;48.32423000;14.29074500;2023-04-01T15:01:40;15.40;64.30
6556;DHT22;3311;48.32423000;14.29074500;2023-04-01T15:04:27;15.40;64.40
6556;DHT22;3311;48.32423000;14.29074500;2023-04-01T15:07:17;15.40;65.30
6556;DHT22;3311;48.32423000;14.29074500;2023-04-01T15:09:55;15.30;64.80
6556;DHT22;3311;48.32423000;14.29074500;2023-04-01T15:12:32;15.30;65.20
6556;DHT22;3311;48.32423000;14.29074500;2023-04-01T15:15:17;15.30;65.10
6556;DHT22;3311;48.32423000;14.29074500;2023-04-01T15:18:07;15.20;65.00
6556;DHT22;3311;48.32423000;14.29074500;2023-04-01T15:21:08;15.20;65.00
6556;DHT22;3311;48.32423000;14.29074500;2023-04-01T15:23:46;15.30;65.00
6556;DHT22;3311;48.32423000;14.29074500;2023-04-01T15:26:37;15.30;65.10
6556;DHT22;3311;48.32423000;14.29074500;2023-04-01T15:29:25;15.30;65.20
6556;DHT22;3311;48.32423000;14.29074500;2023-04-01T15:32:01;15.30;65.10
6556;DHT22;3311;48.32423000;14.29074500;2023-04-01T15:34:35;15.20;65.10
6556;DHT22;3311;48.32423000;14.29074500;2023-04-01T15:37:10;15.20;64.80
6556;DHT22;3311;48.32423000;14.29074500;2023-04-01T15:39:50;15.30;65.30
6556;DHT22;3311;48.32423000;14.29074500;2023-04-01T15:42:27;15.30;64.70
6556;DHT22;3311;48.32423000;14.29074500;2023-04-01T15:47:59;15.30;64.60
6556;DHT22;3311;48.32423000;14.29074500;2023-04-01T15:50:48;15.30;64.40